Flugplatz Grafenwohr Army Air Field

Bericht für ETIC

vom 14.08. um 07:56 UTC

kein Wind

Sichtweite 10 km oder mehr

aufgelockert bewölkt in 700 ft

aufgelockert bewölkt in 2400 ft

bedeckt in 9500 ft

Temperatur 19.4°C

Taupunkt 19.4°C

Luftfeuchtigkeit 100%

Luftdruck 1015 hPa

ETIC 140756Z AUTO 00000KT 9999 SCT007 SCT024 OVC095 19/19 A2998 RMK AO2 SLP140 T01940194 $

Prognose für ETIC

vom 14.08. um 02:00 UTC

Zwischen 02:00 UTC und 22:00 UTC

variable Windrichtung mit 6 kt

Sichtweite 9000 m

schwacher Regenschauer

feuchter Dunst

aufgelockert bewölkt in 2000 ft

aufgebrochene Bewölkung in 3000 ft


Zwischen 04:00 UTC und 06:00 UTC zeitweise

Sichtweite 6000 m

feuchter Dunst


Zwischen 11:00 UTC und 18:00 UTC zeitweise

Wind 15 kt aus 260° in Böen 25 kt

Code: TSRA

aufgebrochene Bewölkung in 5000 ft


Zwischen 22:00 und 23:00 UTC übergehend zu

Wind 6 kt aus 270°

Sichtweite 5000 m

Regen

feuchter Dunst

aufgebrochene Bewölkung in 1500 ft


Am 15.08. zwischen 03:00 UTC und 08:00 UTC zeitweise

Sichtweite 3200 m

Regen

feuchter Dunst

aufgebrochene Bewölkung in 1200 ft

TAF ETIC 140200Z 1402/1508 VRB06KT 9000 -SHRA BR SCT020 BKN030 QNH2995INS TEMPO 1404/1406 6000 BR TEMPO 1411/1418 26015G25KT -TSRA BKN050CB BECMG 1422/1423 27006KT 5000 RA BR BKN015 QNH2996INS TEMPO 1503/1508 3200 RA BR BKN012 TX24/1413Z TN17/1403Z
Impressum